sensor_id;sensor_type;location;lat;lon;timestamp;P1;durP1;ratioP1;P2;durP2;ratioP2
55090;SDS011;40985;53.180;5.800;2024-02-14T00:01:06;14.27;;;12.82;;
55090;SDS011;40985;53.180;5.800;2024-02-14T00:03:34;17.52;;;13.98;;
55090;SDS011;40985;53.180;5.800;2024-02-14T00:06:00;16.45;;;13.32;;
55090;SDS011;40985;53.180;5.800;2024-02-14T00:08:25;20.58;;;14.75;;
55090;SDS011;40985;53.180;5.800;2024-02-14T00:10:51;15.55;;;13.32;;
55090;SDS011;40985;53.180;5.800;2024-02-14T00:13:17;15.60;;;12.82;;
55090;SDS011;40985;53.180;5.800;2024-02-14T00:15:45;16.48;;;14.13;;
55090;SDS011;40985;53.180;5.800;2024-02-14T00:18:11;18.60;;;13.05;;
55090;SDS011;40985;53.180;5.800;2024-02-14T00:20:37;13.02;;;11.60;;
55090;SDS011;40985;53.180;5.800;2024-02-14T00:23:06;17.63;;;14.13;;
55090;SDS011;40985;53.180;5.800;2024-02-14T00:25:32;15.70;;;13.40;;
55090;SDS011;40985;53.180;5.800;2024-02-14T00:27:57;16.88;;;15.07;;
55090;SDS011;40985;53.180;5.800;2024-02-14T00:30:26;15.10;;;12.57;;
55090;SDS011;40985;53.180;5.800;2024-02-14T00:32:52;19.65;;;14.80;;
55090;SDS011;40985;53.180;5.800;2024-02-14T00:35:17;14.52;;;13.07;;
55090;SDS011;40985;53.180;5.800;2024-02-14T00:37:43;15.32;;;13.77;;
55090;SDS011;40985;53.180;5.800;2024-02-14T00:40:09;18.85;;;14.90;;
55090;SDS011;40985;53.180;5.800;2024-02-14T00:42:36;14.10;;;12.70;;
55090;SDS011;40985;53.180;5.800;2024-02-14T00:45:02;17.55;;;13.80;;
55090;SDS011;40985;53.180;5.800;2024-02-14T00:47:28;17.00;;;15.23;;
55090;SDS011;40985;53.180;5.800;2024-02-14T00:49:53;17.92;;;13.93;;
55090;SDS011;40985;53.180;5.800;2024-02-14T00:52:19;17.98;;;15.20;;
55090;SDS011;40985;53.180;5.800;2024-02-14T00:54:46;19.02;;;14.68;;
55090;SDS011;40985;53.180;5.800;2024-02-14T00:57:12;20.50;;;15.63;;
55090;SDS011;40985;53.180;5.800;2024-02-14T00:59:38;18.67;;;15.80;;
55090;SDS011;40985;53.180;5.800;2024-02-14T01:02:04;16.05;;;14.35;;
55090;SDS011;40985;53.180;5.800;2024-02-14T01:04:29;16.90;;;14.93;;
55090;SDS011;40985;53.180;5.800;2024-02-14T01:06:55;15.48;;;14.02;;
55090;SDS011;40985;53.180;5.800;2024-02-14T01:09:21;17.60;;;15.13;;
55090;SDS011;40985;53.180;5.800;2024-02-14T01:11:47;15.55;;;13.95;;
55090;SDS011;40985;53.180;5.800;2024-02-14T01:14:14;17.42;;;15.25;;
55090;SDS011;40985;53.180;5.800;2024-02-14T01:16:43;17.48;;;15.23;;
55090;SDS011;40985;53.180;5.800;2024-02-14T01:19:09;17.25;;;14.77;;
55090;SDS011;40985;53.180;5.800;2024-02-14T01:21:36;17.42;;;15.80;;
55090;SDS011;40985;53.180;5.800;2024-02-14T01:24:01;16.58;;;14.88;;
55090;SDS011;40985;53.180;5.800;2024-02-14T01:26:27;16.17;;;14.57;;
55090;SDS011;40985;53.180;5.800;2024-02-14T01:28:53;16.77;;;14.90;;
55090;SDS011;40985;53.180;5.800;2024-02-14T01:31:19;20.05;;;15.23;;
55090;SDS011;40985;53.180;5.800;2024-02-14T01:33:45;16.83;;;15.02;;
55090;SDS011;40985;53.180;5.800;2024-02-14T01:36:11;16.55;;;14.85;;
55090;SDS011;40985;53.180;5.800;2024-02-14T01:38:37;19.40;;;15.68;;
55090;SDS011;40985;53.180;5.800;2024-02-14T01:41:03;16.15;;;14.52;;
55090;SDS011;40985;53.180;5.800;2024-02-14T01:43:29;21.90;;;16.90;;
55090;SDS011;40985;53.180;5.800;2024-02-14T01:45:55;15.30;;;13.75;;
55090;SDS011;40985;53.180;5.800;2024-02-14T01:48:33;16.45;;;14.65;;
55090;SDS011;40985;53.180;5.800;2024-02-14T01:50:59;16.88;;;15.18;;
55090;SDS011;40985;53.180;5.800;2024-02-14T01:53:26;18.33;;;16.30;;
55090;SDS011;40985;53.180;5.800;2024-02-14T01:55:55;17.17;;;15.38;;
55090;SDS011;40985;53.180;5.800;2024-02-14T01:58:22;17.67;;;15.68;;
55090;SDS011;40985;53.180;5.800;2024-02-14T02:00:48;18.67;;;16.67;;
55090;SDS011;40985;53.180;5.800;2024-02-14T02:03:14;20.75;;;17.15;;
55090;SDS011;40985;53.180;5.800;2024-02-14T02:05:40;21.95;;;17.45;;
55090;SDS011;40985;53.180;5.800;2024-02-14T02:08:08;21.52;;;17.92;;
55090;SDS011;40985;53.180;5.800;2024-02-14T02:10:34;22.27;;;17.98;;
55090;SDS011;40985;53.180;5.800;2024-02-14T02:13:00;20.75;;;17.35;;
55090;SDS011;40985;53.180;5.800;2024-02-14T02:15:26;28.10;;;19.25;;
55090;SDS011;40985;53.180;5.800;2024-02-14T02:17:53;25.17;;;18.45;;
55090;SDS011;40985;53.180;5.800;2024-02-14T02:20:19;20.40;;;17.00;;
55090;SDS011;40985;53.180;5.800;2024-02-14T02:22:46;22.70;;;18.23;;
55090;SDS011;40985;53.180;5.800;2024-02-14T02:25:13;20.63;;;18.10;;
55090;SDS011;40985;53.180;5.800;2024-02-14T02:27:39;21.52;;;17.75;;
55090;SDS011;40985;53.180;5.800;2024-02-14T02:30:05;19.52;;;16.92;;
55090;SDS011;40985;53.180;5.800;2024-02-14T02:32:33;22.60;;;17.02;;
55090;SDS011;40985;53.180;5.800;2024-02-14T02:34:59;20.65;;;16.20;;
55090;SDS011;40985;53.180;5.800;2024-02-14T02:37:28;20.33;;;16.52;;
55090;SDS011;40985;53.180;5.800;2024-02-14T02:39:56;26.95;;;17.83;;
55090;SDS011;40985;53.180;5.800;2024-02-14T02:42:22;22.50;;;16.48;;
55090;SDS011;40985;53.180;5.800;2024-02-14T02:44:49;18.58;;;15.40;;
55090;SDS011;40985;53.180;5.800;2024-02-14T02:47:15;20.27;;;15.77;;
55090;SDS011;40985;53.180;5.800;2024-02-14T02:49:45;17.95;;;14.88;;
55090;SDS011;40985;53.180;5.800;2024-02-14T02:52:11;21.38;;;16.25;;
55090;SDS011;40985;53.180;5.800;2024-02-14T02:54:37;16.98;;;14.15;;
55090;SDS011;40985;53.180;5.800;2024-02-14T02:57:09;18.63;;;14.32;;
55090;SDS011;40985;53.180;5.800;2024-02-14T02:59:37;17.70;;;14.25;;
55090;SDS011;40985;53.180;5.800;2024-02-14T03:02:08;19.55;;;15.23;;
55090;SDS011;40985;53.180;5.800;2024-02-14T03:04:36;20.33;;;15.23;;
55090;SDS011;40985;53.180;5.800;2024-02-14T03:07:03;24.33;;;16.50;;
55090;SDS011;40985;53.180;5.800;2024-02-14T03:09:32;20.77;;;16.10;;
55090;SDS011;40985;53.180;5.800;2024-02-14T03:11:58;24.95;;;16.52;;
55090;SDS011;40985;53.180;5.800;2024-02-14T03:14:23;22.98;;;17.05;;
55090;SDS011;40985;53.180;5.800;2024-02-14T03:16:49;22.90;;;15.40;;
55090;SDS011;40985;53.180;5.800;2024-02-14T03:19:16;20.52;;;14.52;;
55090;SDS011;40985;53.180;5.800;2024-02-14T03:21:41;17.40;;;13.55;;
55090;SDS011;40985;53.180;5.800;2024-02-14T03:24:08;16.30;;;13.27;;
55090;SDS011;40985;53.180;5.800;2024-02-14T03:26:35;14.57;;;12.68;;
55090;SDS011;40985;53.180;5.800;2024-02-14T03:29:03;19.13;;;14.07;;
55090;SDS011;40985;53.180;5.800;2024-02-14T03:31:31;21.45;;;13.40;;
55090;SDS011;40985;53.180;5.800;2024-02-14T03:33:57;17.20;;;11.77;;
55090;SDS011;40985;53.180;5.800;2024-02-14T03:36:23;20.50;;;13.02;;
55090;SDS011;40985;53.180;5.800;2024-02-14T03:38:52;22.55;;;12.77;;
55090;SDS011;40985;53.180;5.800;2024-02-14T03:41:17;23.20;;;12.25;;
55090;SDS011;40985;53.180;5.800;2024-02-14T03:43:43;25.02;;;11.82;;
55090;SDS011;40985;53.180;5.800;2024-02-14T03:46:09;19.48;;;10.98;;
55090;SDS011;40985;53.180;5.800;2024-02-14T03:48:34;19.33;;;10.57;;
55090;SDS011;40985;53.180;5.800;2024-02-14T03:51:00;15.38;;;9.57;;
55090;SDS011;40985;53.180;5.800;2024-02-14T03:53:26;21.15;;;10.43;;
55090;SDS011;40985;53.180;5.800;2024-02-14T03:55:52;17.77;;;9.30;;
55090;SDS011;40985;53.180;5.800;2024-02-14T03:58:18;15.02;;;8.70;;
55090;SDS011;40985;53.180;5.800;2024-02-14T04:00:49;19.58;;;9.60;;
55090;SDS011;40985;53.180;5.800;2024-02-14T04:03:15;20.15;;;9.02;;
55090;SDS011;40985;53.180;5.800;2024-02-14T04:05:41;16.50;;;8.73;;
55090;SDS011;40985;53.180;5.800;2024-02-14T04:08:07;19.40;;;8.60;;
55090;SDS011;40985;53.180;5.800;2024-02-14T04:10:38;15.05;;;8.65;;
55090;SDS011;40985;53.180;5.800;2024-02-14T04:13:04;16.73;;;8.38;;
55090;SDS011;40985;53.180;5.800;2024-02-14T04:15:30;18.88;;;8.68;;
55090;SDS011;40985;53.180;5.800;2024-02-14T04:17:56;19.08;;;8.70;;
55090;SDS011;40985;53.180;5.800;2024-02-14T04:20:22;17.48;;;8.98;;
55090;SDS011;40985;53.180;5.800;2024-02-14T04:22:47;21.10;;;9.90;;
55090;SDS011;40985;53.180;5.800;2024-02-14T04:25:13;26.83;;;9.93;;
55090;SDS011;40985;53.180;5.800;2024-02-14T04:27:39;31.00;;;11.45;;
55090;SDS011;40985;53.180;5.800;2024-02-14T04:30:05;31.67;;;10.32;;
55090;SDS011;40985;53.180;5.800;2024-02-14T04:32:31;24.50;;;9.55;;
55090;SDS011;40985;53.180;5.800;2024-02-14T04:34:57;24.05;;;8.65;;
55090;SDS011;40985;53.180;5.800;2024-02-14T04:37:24;24.88;;;9.77;;
55090;SDS011;40985;53.180;5.800;2024-02-14T04:39:49;34.38;;;10.18;;
55090;SDS011;40985;53.180;5.800;2024-02-14T04:42:15;26.13;;;9.60;;
55090;SDS011;40985;53.180;5.800;2024-02-14T04:44:41;34.88;;;9.77;;
55090;SDS011;40985;53.180;5.800;2024-02-14T04:47:06;37.20;;;9.57;;
55090;SDS011;40985;53.180;5.800;2024-02-14T04:49:34;40.35;;;10.85;;
55090;SDS011;40985;53.180;5.800;2024-02-14T04:52:00;43.85;;;10.93;;
55090;SDS011;40985;53.180;5.800;2024-02-14T04:54:26;55.30;;;12.35;;
55090;SDS011;40985;53.180;5.800;2024-02-14T04:56:53;47.95;;;11.90;;
55090;SDS011;40985;53.180;5.800;2024-02-14T04:59:19;54.85;;;12.80;;
55090;SDS011;40985;53.180;5.800;2024-02-14T05:01:45;56.15;;;12.30;;
55090;SDS011;40985;53.180;5.800;2024-02-14T05:04:11;56.38;;;11.25;;
55090;SDS011;40985;53.180;5.800;2024-02-14T05:06:38;52.42;;;9.98;;
55090;SDS011;40985;53.180;5.800;2024-02-14T05:09:04;44.85;;;8.95;;
55090;SDS011;40985;53.180;5.800;2024-02-14T05:11:30;40.60;;;7.50;;
55090;SDS011;40985;53.180;5.800;2024-02-14T05:13:56;47.83;;;9.05;;
55090;SDS011;40985;53.180;5.800;2024-02-14T05:16:22;46.88;;;9.02;;
55090;SDS011;40985;53.180;5.800;2024-02-14T05:18:48;38.72;;;8.68;;
55090;SDS011;40985;53.180;5.800;2024-02-14T05:21:14;48.90;;;8.27;;
55090;SDS011;40985;53.180;5.800;2024-02-14T05:23:39;64.47;;;11.05;;
55090;SDS011;40985;53.180;5.800;2024-02-14T05:26:05;55.72;;;8.45;;
55090;SDS011;40985;53.180;5.800;2024-02-14T05:28:31;70.57;;;8.52;;
55090;SDS011;40985;53.180;5.800;2024-02-14T05:30:58;63.83;;;8.20;;
55090;SDS011;40985;53.180;5.800;2024-02-14T05:33:25;63.67;;;7.78;;
55090;SDS011;40985;53.180;5.800;2024-02-14T05:35:51;77.95;;;9.25;;
55090;SDS011;40985;53.180;5.800;2024-02-14T05:38:17;65.05;;;7.78;;
55090;SDS011;40985;53.180;5.800;2024-02-14T05:40:46;69.53;;;8.70;;
55090;SDS011;40985;53.180;5.800;2024-02-14T05:43:13;64.93;;;8.10;;
55090;SDS011;40985;53.180;5.800;2024-02-14T05:45:39;57.92;;;7.47;;
55090;SDS011;40985;53.180;5.800;2024-02-14T05:48:05;60.25;;;7.50;;
55090;SDS011;40985;53.180;5.800;2024-02-14T05:50:31;71.28;;;9.35;;
55090;SDS011;40985;53.180;5.800;2024-02-14T05:52:57;66.15;;;7.97;;
55090;SDS011;40985;53.180;5.800;2024-02-14T05:55:23;68.25;;;10.55;;
55090;SDS011;40985;53.180;5.800;2024-02-14T05:57:52;61.75;;;8.75;;
55090;SDS011;40985;53.180;5.800;2024-02-14T06:00:20;65.72;;;7.88;;
55090;SDS011;40985;53.180;5.800;2024-02-14T06:02:49;63.95;;;7.18;;
55090;SDS011;40985;53.180;5.800;2024-02-14T06:05:15;63.70;;;7.45;;
55090;SDS011;40985;53.180;5.800;2024-02-14T06:07:41;71.25;;;8.77;;
55090;SDS011;40985;53.180;5.800;2024-02-14T06:10:10;66.53;;;7.70;;
55090;SDS011;40985;53.180;5.800;2024-02-14T06:12:36;61.15;;;8.73;;
55090;SDS011;40985;53.180;5.800;2024-02-14T06:15:02;61.88;;;7.97;;
55090;SDS011;40985;53.180;5.800;2024-02-14T06:17:28;68.40;;;8.02;;
55090;SDS011;40985;53.180;5.800;2024-02-14T06:19:54;81.45;;;8.57;;
55090;SDS011;40985;53.180;5.800;2024-02-14T06:22:20;69.00;;;8.63;;
55090;SDS011;40985;53.180;5.800;2024-02-14T06:24:46;60.90;;;7.45;;
55090;SDS011;40985;53.180;5.800;2024-02-14T06:27:15;63.78;;;6.88;;
55090;SDS011;40985;53.180;5.800;2024-02-14T06:29:44;63.75;;;7.35;;
55090;SDS011;40985;53.180;5.800;2024-02-14T06:32:13;73.57;;;8.25;;
55090;SDS011;40985;53.180;5.800;2024-02-14T06:34:39;64.57;;;7.40;;
55090;SDS011;40985;53.180;5.800;2024-02-14T06:37:05;57.22;;;6.97;;
55090;SDS011;40985;53.180;5.800;2024-02-14T06:39:30;64.60;;;7.38;;
55090;SDS011;40985;53.180;5.800;2024-02-14T06:41:56;52.90;;;6.70;;
55090;SDS011;40985;53.180;5.800;2024-02-14T06:44:25;69.38;;;8.35;;
55090;SDS011;40985;53.180;5.800;2024-02-14T06:46:51;74.53;;;8.73;;
55090;SDS011;40985;53.180;5.800;2024-02-14T06:49:17;78.47;;;8.48;;
55090;SDS011;40985;53.180;5.800;2024-02-14T06:51:43;72.00;;;7.25;;
55090;SDS011;40985;53.180;5.800;2024-02-14T06:54:08;58.05;;;6.80;;
55090;SDS011;40985;53.180;5.800;2024-02-14T06:56:35;75.53;;;7.82;;
55090;SDS011;40985;53.180;5.800;2024-02-14T06:59:00;73.75;;;8.45;;
55090;SDS011;40985;53.180;5.800;2024-02-14T07:01:27;71.90;;;7.88;;
55090;SDS011;40985;53.180;5.800;2024-02-14T07:03:56;64.63;;;6.93;;
55090;SDS011;40985;53.180;5.800;2024-02-14T07:06:23;61.47;;;7.22;;
55090;SDS011;40985;53.180;5.800;2024-02-14T07:08:49;60.40;;;7.38;;
55090;SDS011;40985;53.180;5.800;2024-02-14T07:11:15;74.38;;;9.20;;
55090;SDS011;40985;53.180;5.800;2024-02-14T07:13:41;71.28;;;7.13;;
55090;SDS011;40985;53.180;5.800;2024-02-14T07:16:07;72.15;;;8.02;;
55090;SDS011;40985;53.180;5.800;2024-02-14T07:18:33;73.28;;;7.93;;
55090;SDS011;40985;53.180;5.800;2024-02-14T07:20:59;78.50;;;8.98;;
55090;SDS011;40985;53.180;5.800;2024-02-14T07:23:26;67.28;;;7.53;;
55090;SDS011;40985;53.180;5.800;2024-02-14T07:25:52;58.30;;;6.68;;
55090;SDS011;40985;53.180;5.800;2024-02-14T07:28:18;67.60;;;7.40;;
55090;SDS011;40985;53.180;5.800;2024-02-14T07:30:44;63.60;;;6.18;;
55090;SDS011;40985;53.180;5.800;2024-02-14T07:33:09;58.30;;;6.72;;
55090;SDS011;40985;53.180;5.800;2024-02-14T07:35:38;69.43;;;6.78;;
55090;SDS011;40985;53.180;5.800;2024-02-14T07:38:04;62.72;;;6.70;;
55090;SDS011;40985;53.180;5.800;2024-02-14T07:40:30;70.70;;;8.85;;
55090;SDS011;40985;53.180;5.800;2024-02-14T07:42:56;79.28;;;7.72;;
55090;SDS011;40985;53.180;5.800;2024-02-14T07:45:22;62.47;;;6.97;;
55090;SDS011;40985;53.180;5.800;2024-02-14T07:47:51;68.97;;;7.50;;
55090;SDS011;40985;53.180;5.800;2024-02-14T07:50:17;73.80;;;7.07;;
55090;SDS011;40985;53.180;5.800;2024-02-14T07:52:43;62.78;;;6.63;;
55090;SDS011;40985;53.180;5.800;2024-02-14T07:55:10;62.45;;;7.65;;
55090;SDS011;40985;53.180;5.800;2024-02-14T07:57:40;74.57;;;8.15;;
55090;SDS011;40985;53.180;5.800;2024-02-14T08:00:07;65.00;;;8.30;;
55090;SDS011;40985;53.180;5.800;2024-02-14T08:02:33;79.80;;;8.10;;
55090;SDS011;40985;53.180;5.800;2024-02-14T08:04:59;73.65;;;9.20;;
55090;SDS011;40985;53.180;5.800;2024-02-14T08:07:25;68.43;;;8.18;;
55090;SDS011;40985;53.180;5.800;2024-02-14T08:09:51;66.63;;;9.40;;
55090;SDS011;40985;53.180;5.800;2024-02-14T08:12:17;68.05;;;9.38;;
55090;SDS011;40985;53.180;5.800;2024-02-14T08:14:42;62.92;;;9.93;;
55090;SDS011;40985;53.180;5.800;2024-02-14T08:17:08;59.00;;;9.65;;
55090;SDS011;40985;53.180;5.800;2024-02-14T08:19:34;66.75;;;10.18;;
55090;SDS011;40985;53.180;5.800;2024-02-14T08:22:00;65.85;;;10.38;;
55090;SDS011;40985;53.180;5.800;2024-02-14T08:24:26;75.65;;;10.85;;
55090;SDS011;40985;53.180;5.800;2024-02-14T08:26:52;73.90;;;12.60;;
55090;SDS011;40985;53.180;5.800;2024-02-14T08:29:18;67.38;;;10.43;;
55090;SDS011;40985;53.180;5.800;2024-02-14T08:31:44;71.20;;;10.35;;
55090;SDS011;40985;53.180;5.800;2024-02-14T08:34:10;67.80;;;12.77;;
55090;SDS011;40985;53.180;5.800;2024-02-14T08:36:35;68.47;;;11.60;;
55090;SDS011;40985;53.180;5.800;2024-02-14T08:39:08;73.10;;;11.93;;
55090;SDS011;40985;53.180;5.800;2024-02-14T08:41:37;72.10;;;12.10;;
55090;SDS011;40985;53.180;5.800;2024-02-14T08:44:06;67.38;;;11.70;;
55090;SDS011;40985;53.180;5.800;2024-02-14T08:46:32;70.40;;;12.15;;
55090;SDS011;40985;53.180;5.800;2024-02-14T08:48:59;66.85;;;12.32;;
55090;SDS011;40985;53.180;5.800;2024-02-14T08:51:27;69.70;;;12.63;;
55090;SDS011;40985;53.180;5.800;2024-02-14T08:53:56;59.83;;;11.73;;
55090;SDS011;40985;53.180;5.800;2024-02-14T08:56:24;75.90;;;14.85;;
55090;SDS011;40985;53.180;5.800;2024-02-14T08:58:50;70.10;;;12.30;;
55090;SDS011;40985;53.180;5.800;2024-02-14T09:01:16;59.20;;;12.65;;
55090;SDS011;40985;53.180;5.800;2024-02-14T09:03:42;72.30;;;12.30;;
55090;SDS011;40985;53.180;5.800;2024-02-14T09:06:13;69.55;;;12.98;;
55090;SDS011;40985;53.180;5.800;2024-02-14T09:08:39;72.18;;;14.75;;
55090;SDS011;40985;53.180;5.800;2024-02-14T09:11:06;56.28;;;11.32;;
55090;SDS011;40985;53.180;5.800;2024-02-14T09:13:31;64.45;;;11.18;;
55090;SDS011;40985;53.180;5.800;2024-02-14T09:15:57;55.67;;;11.52;;
55090;SDS011;40985;53.180;5.800;2024-02-14T09:18:22;49.03;;;8.85;;
55090;SDS011;40985;53.180;5.800;2024-02-14T09:20:49;55.72;;;10.27;;
55090;SDS011;40985;53.180;5.800;2024-02-14T09:23:15;57.88;;;10.43;;
55090;SDS011;40985;53.180;5.800;2024-02-14T09:25:45;51.58;;;9.88;;
55090;SDS011;40985;53.180;5.800;2024-02-14T09:28:12;51.55;;;9.15;;
55090;SDS011;40985;53.180;5.800;2024-02-14T09:30:39;49.50;;;9.18;;
55090;SDS011;40985;53.180;5.800;2024-02-14T09:33:05;38.78;;;8.68;;
55090;SDS011;40985;53.180;5.800;2024-02-14T09:35:30;45.45;;;9.35;;
55090;SDS011;40985;53.180;5.800;2024-02-14T09:37:56;52.17;;;9.60;;
55090;SDS011;40985;53.180;5.800;2024-02-14T09:40:22;52.97;;;10.10;;
55090;SDS011;40985;53.180;5.800;2024-02-14T09:42:57;41.42;;;8.75;;
55090;SDS011;40985;53.180;5.800;2024-02-14T09:45:28;49.63;;;9.68;;
55090;SDS011;40985;53.180;5.800;2024-02-14T09:47:58;47.95;;;10.50;;
55090;SDS011;40985;53.180;5.800;2024-02-14T09:50:24;39.97;;;10.88;;
55090;SDS011;40985;53.180;5.800;2024-02-14T09:52:55;39.58;;;9.77;;
55090;SDS011;40985;53.180;5.800;2024-02-14T09:55:22;46.55;;;11.32;;
55090;SDS011;40985;53.180;5.800;2024-02-14T09:57:49;46.75;;;11.27;;
55090;SDS011;40985;53.180;5.800;2024-02-14T10:00:15;46.63;;;13.07;;
55090;SDS011;40985;53.180;5.800;2024-02-14T10:02:41;51.08;;;11.90;;
55090;SDS011;40985;53.180;5.800;2024-02-14T10:05:07;42.38;;;11.13;;
55090;SDS011;40985;53.180;5.800;2024-02-14T10:07:40;38.92;;;11.25;;
55090;SDS011;40985;53.180;5.800;2024-02-14T10:10:07;43.53;;;10.68;;
55090;SDS011;40985;53.180;5.800;2024-02-14T10:12:32;33.80;;;8.98;;
55090;SDS011;40985;53.180;5.800;2024-02-14T10:14:58;41.05;;;9.02;;
55090;SDS011;40985;53.180;5.800;2024-02-14T10:17:24;36.78;;;7.95;;
55090;SDS011;40985;53.180;5.800;2024-02-14T10:19:54;33.00;;;7.82;;
55090;SDS011;40985;53.180;5.800;2024-02-14T10:24:50;36.72;;;9.32;;
55090;SDS011;40985;53.180;5.800;2024-02-14T10:27:16;45.65;;;9.40;;
55090;SDS011;40985;53.180;5.800;2024-02-14T10:29:42;48.33;;;9.65;;
55090;SDS011;40985;53.180;5.800;2024-02-14T10:32:09;45.40;;;9.38;;
55090;SDS011;40985;53.180;5.800;2024-02-14T10:34:35;43.90;;;8.63;;
55090;SDS011;40985;53.180;5.800;2024-02-14T10:37:03;49.65;;;10.50;;
55090;SDS011;40985;53.180;5.800;2024-02-14T10:39:31;48.30;;;9.98;;
55090;SDS011;40985;53.180;5.800;2024-02-14T10:42:00;38.30;;;9.13;;
55090;SDS011;40985;53.180;5.800;2024-02-14T10:44:26;44.10;;;8.73;;
55090;SDS011;40985;53.180;5.800;2024-02-14T10:46:52;48.40;;;9.95;;
55090;SDS011;40985;53.180;5.800;2024-02-14T10:49:22;44.40;;;9.30;;
55090;SDS011;40985;53.180;5.800;2024-02-14T10:51:52;35.63;;;8.82;;
55090;SDS011;40985;53.180;5.800;2024-02-14T10:54:21;36.88;;;10.27;;
55090;SDS011;40985;53.180;5.800;2024-02-14T10:56:50;39.35;;;9.00;;
55090;SDS011;40985;53.180;5.800;2024-02-14T10:59:19;35.13;;;9.65;;
55090;SDS011;40985;53.180;5.800;2024-02-14T11:01:48;36.33;;;9.15;;
55090;SDS011;40985;53.180;5.800;2024-02-14T11:04:15;33.22;;;8.65;;
55090;SDS011;40985;53.180;5.800;2024-02-14T11:06:46;34.75;;;9.35;;
55090;SDS011;40985;53.180;5.800;2024-02-14T11:09:12;37.45;;;8.68;;
55090;SDS011;40985;53.180;5.800;2024-02-14T11:11:40;33.70;;;7.97;;
55090;SDS011;40985;53.180;5.800;2024-02-14T11:14:08;38.10;;;8.35;;
55090;SDS011;40985;53.180;5.800;2024-02-14T11:16:34;41.10;;;10.52;;
55090;SDS011;40985;53.180;5.800;2024-02-14T11:19:05;33.35;;;8.52;;
55090;SDS011;40985;53.180;5.800;2024-02-14T11:21:37;37.80;;;8.60;;
55090;SDS011;40985;53.180;5.800;2024-02-14T11:24:09;31.08;;;7.10;;
55090;SDS011;40985;53.180;5.800;2024-02-14T11:26:46;37.30;;;7.80;;
55090;SDS011;40985;53.180;5.800;2024-02-14T11:29:17;33.10;;;7.95;;
55090;SDS011;40985;53.180;5.800;2024-02-14T11:31:44;33.13;;;7.00;;
55090;SDS011;40985;53.180;5.800;2024-02-14T11:34:13;30.27;;;6.53;;
55090;SDS011;40985;53.180;5.800;2024-02-14T11:36:43;33.25;;;7.45;;
55090;SDS011;40985;53.180;5.800;2024-02-14T11:39:10;19.98;;;6.60;;
55090;SDS011;40985;53.180;5.800;2024-02-14T11:41:39;27.38;;;7.03;;
55090;SDS011;40985;53.180;5.800;2024-02-14T11:44:07;26.88;;;6.38;;
55090;SDS011;40985;53.180;5.800;2024-02-14T11:46:34;25.83;;;6.88;;
55090;SDS011;40985;53.180;5.800;2024-02-14T11:49:01;23.90;;;6.95;;
55090;SDS011;40985;53.180;5.800;2024-02-14T11:51:28;22.67;;;7.13;;
55090;SDS011;40985;53.180;5.800;2024-02-14T11:53:55;21.30;;;7.43;;
55090;SDS011;40985;53.180;5.800;2024-02-14T11:56:29;24.15;;;9.23;;
55090;SDS011;40985;53.180;5.800;2024-02-14T11:59:02;36.17;;;11.60;;
55090;SDS011;40985;53.180;5.800;2024-02-14T12:01:33;31.15;;;13.98;;
55090;SDS011;40985;53.180;5.800;2024-02-14T12:04:00;32.13;;;14.15;;
55090;SDS011;40985;53.180;5.800;2024-02-14T12:06:28;31.70;;;14.90;;
55090;SDS011;40985;53.180;5.800;2024-02-14T12:08:57;34.15;;;15.50;;
55090;SDS011;40985;53.180;5.800;2024-02-14T12:11:37;32.35;;;17.23;;
55090;SDS011;40985;53.180;5.800;2024-02-14T12:14:06;34.10;;;18.75;;
55090;SDS011;40985;53.180;5.800;2024-02-14T12:16:35;38.80;;;20.40;;
55090;SDS011;40985;53.180;5.800;2024-02-14T12:21:38;28.70;;;18.10;;
55090;SDS011;40985;53.180;5.800;2024-02-14T12:24:07;31.40;;;17.83;;
55090;SDS011;40985;53.180;5.800;2024-02-14T12:26:37;29.17;;;17.13;;
55090;SDS011;40985;53.180;5.800;2024-02-14T12:29:03;29.58;;;16.38;;
55090;SDS011;40985;53.180;5.800;2024-02-14T12:31:29;27.98;;;15.40;;
55090;SDS011;40985;53.180;5.800;2024-02-14T12:33:56;23.83;;;15.07;;
55090;SDS011;40985;53.180;5.800;2024-02-14T12:36:24;27.27;;;15.70;;
55090;SDS011;40985;53.180;5.800;2024-02-14T12:38:54;27.50;;;15.18;;
55090;SDS011;40985;53.180;5.800;2024-02-14T12:41:20;24.85;;;15.02;;
55090;SDS011;40985;53.180;5.800;2024-02-14T12:43:48;25.90;;;15.27;;
55090;SDS011;40985;53.180;5.800;2024-02-14T12:46:14;27.90;;;15.32;;
55090;SDS011;40985;53.180;5.800;2024-02-14T12:48:40;26.52;;;15.07;;
55090;SDS011;40985;53.180;5.800;2024-02-14T12:51:06;31.27;;;14.98;;
55090;SDS011;40985;53.180;5.800;2024-02-14T12:53:33;29.80;;;15.32;;
55090;SDS011;40985;53.180;5.800;2024-02-14T12:55:59;31.63;;;16.02;;
55090;SDS011;40985;53.180;5.800;2024-02-14T12:58:25;26.05;;;15.90;;
55090;SDS011;40985;53.180;5.800;2024-02-14T13:00:51;26.98;;;13.40;;
55090;SDS011;40985;53.180;5.800;2024-02-14T13:03:18;29.80;;;12.70;;
55090;SDS011;40985;53.180;5.800;2024-02-14T13:05:44;22.25;;;11.50;;
55090;SDS011;40985;53.180;5.800;2024-02-14T13:08:12;25.35;;;11.60;;
55090;SDS011;40985;53.180;5.800;2024-02-14T13:10:38;21.10;;;10.30;;
55090;SDS011;40985;53.180;5.800;2024-02-14T13:13:04;25.45;;;10.45;;
55090;SDS011;40985;53.180;5.800;2024-02-14T13:15:29;25.73;;;9.52;;
55090;SDS011;40985;53.180;5.800;2024-02-14T13:17:55;26.55;;;9.55;;
55090;SDS011;40985;53.180;5.800;2024-02-14T13:20:23;21.10;;;9.20;;
55090;SDS011;40985;53.180;5.800;2024-02-14T13:22:49;31.58;;;10.23;;
55090;SDS011;40985;53.180;5.800;2024-02-14T13:25:15;27.17;;;9.48;;
55090;SDS011;40985;53.180;5.800;2024-02-14T13:27:40;27.77;;;10.00;;
55090;SDS011;40985;53.180;5.800;2024-02-14T13:30:08;25.80;;;8.23;;
55090;SDS011;40985;53.180;5.800;2024-02-14T13:32:33;22.48;;;8.60;;
55090;SDS011;40985;53.180;5.800;2024-02-14T13:34:59;18.05;;;7.25;;
55090;SDS011;40985;53.180;5.800;2024-02-14T13:37:25;21.17;;;7.82;;
55090;SDS011;40985;53.180;5.800;2024-02-14T13:39:51;17.40;;;7.28;;
55090;SDS011;40985;53.180;5.800;2024-02-14T13:42:16;14.75;;;7.90;;
55090;SDS011;40985;53.180;5.800;2024-02-14T13:44:42;14.93;;;8.73;;
55090;SDS011;40985;53.180;5.800;2024-02-14T13:47:08;18.25;;;8.90;;
55090;SDS011;40985;53.180;5.800;2024-02-14T13:49:34;14.13;;;8.98;;
55090;SDS011;40985;53.180;5.800;2024-02-14T13:52:00;18.08;;;9.88;;
55090;SDS011;40985;53.180;5.800;2024-02-14T13:54:25;17.15;;;11.43;;
55090;SDS011;40985;53.180;5.800;2024-02-14T13:56:51;17.75;;;12.13;;
55090;SDS011;40985;53.180;5.800;2024-02-14T13:59:17;18.02;;;13.38;;
55090;SDS011;40985;53.180;5.800;2024-02-14T14:01:44;18.63;;;13.60;;
55090;SDS011;40985;53.180;5.800;2024-02-14T14:04:11;13.63;;;11.05;;
55090;SDS011;40985;53.180;5.800;2024-02-14T14:06:37;10.48;;;8.98;;
55090;SDS011;40985;53.180;5.800;2024-02-14T14:09:04;9.73;;;8.00;;
55090;SDS011;40985;53.180;5.800;2024-02-14T14:11:35;7.28;;;6.57;;
55090;SDS011;40985;53.180;5.800;2024-02-14T14:14:00;5.88;;;5.30;;
55090;SDS011;40985;53.180;5.800;2024-02-14T14:16:26;6.97;;;5.18;;
55090;SDS011;40985;53.180;5.800;2024-02-14T14:18:52;7.50;;;5.30;;
55090;SDS011;40985;53.180;5.800;2024-02-14T14:21:17;8.90;;;5.28;;
55090;SDS011;40985;53.180;5.800;2024-02-14T14:23:43;11.35;;;5.97;;
55090;SDS011;40985;53.180;5.800;2024-02-14T14:26:09;11.60;;;6.22;;
55090;SDS011;40985;53.180;5.800;2024-02-14T14:28:35;10.65;;;6.32;;
55090;SDS011;40985;53.180;5.800;2024-02-14T14:31:01;13.90;;;7.53;;